sensor_id;sensor_type;location;lat;lon;timestamp;pressure;altitude;pressure_sealevel;temperature;humidity
75923;BME280;64602;47.542;19.090;2023-04-25T05:48:19;99295.25;;;9.84;82.30
75923;BME280;64602;47.542;19.090;2023-04-25T05:53:21;99284.16;;;9.66;83.47
75923;BME280;64602;47.542;19.090;2023-04-25T05:58:23;99280.41;;;9.56;83.73
75923;BME280;64602;47.542;19.090;2023-04-25T06:03:26;99290.38;;;9.61;84.00
75923;BME280;64602;47.542;19.090;2023-04-25T06:08:28;99293.66;;;9.48;84.64
75923;BME280;64602;47.542;19.090;2023-04-25T06:13:31;99306.13;;;9.49;85.44
75923;BME280;64602;47.542;19.090;2023-04-25T06:18:33;99293.13;;;9.46;85.58
75923;BME280;64602;47.542;19.090;2023-04-25T06:23:35;99302.88;;;9.57;85.23
75923;BME280;64602;47.542;19.090;2023-04-25T06:28:37;99289.59;;;9.55;85.27
75923;BME280;64602;47.542;19.090;2023-04-25T06:33:40;99310.97;;;9.72;85.48
75923;BME280;64602;47.542;19.090;2023-04-25T06:38:42;99311.50;;;9.84;85.17
75923;BME280;64602;47.542;19.090;2023-04-25T06:43:44;99307.41;;;10.02;84.72
75923;BME280;64602;47.542;19.090;2023-04-25T06:48:46;99299.28;;;10.08;84.02
75923;BME280;64602;47.542;19.090;2023-04-25T06:53:48;99311.94;;;10.38;84.15
75923;BME280;64602;47.542;19.090;2023-04-25T06:58:50;99321.06;;;10.62;83.69
75923;BME280;64602;47.542;19.090;2023-04-25T07:03:53;99319.66;;;10.70;83.40
75923;BME280;64602;47.542;19.090;2023-04-25T07:08:55;99315.00;;;10.81;83.06
75923;BME280;64602;47.542;19.090;2023-04-25T07:13:58;99299.56;;;10.76;82.20
75923;BME280;64602;47.542;19.090;2023-04-25T07:19:00;99311.94;;;10.93;82.00
75923;BME280;64602;47.542;19.090;2023-04-25T07:24:02;99299.91;;;11.04;81.54
75923;BME280;64602;47.542;19.090;2023-04-25T07:29:04;99315.16;;;11.39;80.80
75923;BME280;64602;47.542;19.090;2023-04-25T07:34:07;99300.06;;;11.57;79.76
75923;BME280;64602;47.542;19.090;2023-04-25T07:39:09;99311.62;;;11.73;78.76
75923;BME280;64602;47.542;19.090;2023-04-25T07:44:12;99301.59;;;11.68;78.75
75923;BME280;64602;47.542;19.090;2023-04-25T07:49:15;99314.00;;;11.80;78.45
75923;BME280;64602;47.542;19.090;2023-04-25T07:54:17;99318.88;;;12.12;77.21
75923;BME280;64602;47.542;19.090;2023-04-25T07:59:19;99313.84;;;12.24;76.08
75923;BME280;64602;47.542;19.090;2023-04-25T08:04:22;99319.88;;;12.45;74.95
75923;BME280;64602;47.542;19.090;2023-04-25T08:09:24;99315.84;;;12.80;74.22
75923;BME280;64602;47.542;19.090;2023-04-25T08:14:26;99312.72;;;13.11;72.22
75923;BME280;64602;47.542;19.090;2023-04-25T08:19:29;99313.56;;;13.44;71.27
75923;BME280;64602;47.542;19.090;2023-04-25T08:24:32;99326.28;;;13.35;70.16
75923;BME280;64602;47.542;19.090;2023-04-25T08:29:34;99320.84;;;13.49;69.90
75923;BME280;64602;47.542;19.090;2023-04-25T08:34:37;99321.56;;;13.87;70.02
75923;BME280;64602;47.542;19.090;2023-04-25T08:39:41;99326.25;;;14.01;69.22
75923;BME280;64602;47.542;19.090;2023-04-25T08:44:45;99317.13;;;13.78;68.91
75923;BME280;64602;47.542;19.090;2023-04-25T08:49:48;99330.87;;;13.86;67.92
75923;BME280;64602;47.542;19.090;2023-04-25T08:54:52;99330.75;;;13.78;67.43
75923;BME280;64602;47.542;19.090;2023-04-25T08:59:57;99345.00;;;13.75;67.26
75923;BME280;64602;47.542;19.090;2023-04-25T09:04:59;99344.47;;;13.40;67.46
75923;BME280;64602;47.542;19.090;2023-04-25T09:10:02;99346.34;;;13.58;66.83
75923;BME280;64602;47.542;19.090;2023-04-25T09:15:06;99353.97;;;13.75;66.06
75923;BME280;64602;47.542;19.090;2023-04-25T09:20:12;99356.28;;;14.15;65.43
75923;BME280;64602;47.542;19.090;2023-04-25T09:25:14;99346.09;;;14.20;64.11
75923;BME280;64602;47.542;19.090;2023-04-25T09:30:16;99363.06;;;14.31;64.30
75923;BME280;64602;47.542;19.090;2023-04-25T09:35:25;99337.13;;;14.61;62.76
75923;BME280;64602;47.542;19.090;2023-04-25T09:40:30;99327.34;;;15.33;60.06
75923;BME280;64602;47.542;19.090;2023-04-25T09:45:40;99344.34;;;16.20;58.65
75923;BME280;64602;47.542;19.090;2023-04-25T09:50:43;99339.38;;;16.31;57.67
75923;BME280;64602;47.542;19.090;2023-04-25T09:55:45;99332.06;;;16.57;56.88
75923;BME280;64602;47.542;19.090;2023-04-25T10:00:48;99342.06;;;16.13;56.17
75923;BME280;64602;47.542;19.090;2023-04-25T10:05:50;99339.16;;;16.10;55.75
75923;BME280;64602;47.542;19.090;2023-04-25T10:10:54;99346.78;;;16.21;55.44
75923;BME280;64602;47.542;19.090;2023-04-25T10:15:58;99324.81;;;15.81;55.88
75923;BME280;64602;47.542;19.090;2023-04-25T10:21:03;99341.81;;;15.33;56.80
75923;BME280;64602;47.542;19.090;2023-04-25T10:26:06;99341.50;;;15.12;57.48
75923;BME280;64602;47.542;19.090;2023-04-25T10:31:15;99326.66;;;14.91;57.74
75923;BME280;64602;47.542;19.090;2023-04-25T10:36:20;99327.50;;;14.78;57.81
75923;BME280;64602;47.542;19.090;2023-04-25T10:41:25;99323.09;;;14.54;57.25
75923;BME280;64602;47.542;19.090;2023-04-25T10:46:28;99331.53;;;14.80;56.54
75923;BME280;64602;47.542;19.090;2023-04-25T10:51:34;99335.25;;;14.98;55.53
75923;BME280;64602;47.542;19.090;2023-04-25T10:56:58;99335.25;;;15.57;54.56
75923;BME280;64602;47.542;19.090;2023-04-25T11:02:11;99345.13;;;16.12;53.43
75923;BME280;64602;47.542;19.090;2023-04-25T11:07:51;99340.16;;;16.22;51.93
75923;BME280;64602;47.542;19.090;2023-04-25T11:13:08;99358.31;;;16.50;51.67
75923;BME280;64602;47.542;19.090;2023-04-25T11:18:10;99345.34;;;16.33;50.84
75923;BME280;64602;47.542;19.090;2023-04-25T11:23:12;99355.63;;;16.67;50.34
75923;BME280;64602;47.542;19.090;2023-04-25T11:28:20;99372.22;;;17.63;48.20
75923;BME280;64602;47.542;19.090;2023-04-25T11:33:26;99376.41;;;17.95;47.91
75923;BME280;64602;47.542;19.090;2023-04-25T11:38:29;99385.47;;;17.69;47.80
75923;BME280;64602;47.542;19.090;2023-04-25T11:43:31;99371.78;;;18.34;46.71
75923;BME280;64602;47.542;19.090;2023-04-25T11:48:40;99383.25;;;18.36;46.37
75923;BME280;64602;47.542;19.090;2023-04-25T11:53:44;99362.38;;;17.70;47.45
75923;BME280;64602;47.542;19.090;2023-04-25T11:59:00;99374.25;;;16.87;48.43
75923;BME280;64602;47.542;19.090;2023-04-25T12:04:14;99388.00;;;16.65;47.53
75923;BME280;64602;47.542;19.090;2023-04-25T12:09:27;99376.78;;;16.35;47.59
75923;BME280;64602;47.542;19.090;2023-04-25T12:14:32;99396.66;;;16.18;47.20
75923;BME280;64602;47.542;19.090;2023-04-25T12:19:36;99394.81;;;16.05;47.04
75923;BME280;64602;47.542;19.090;2023-04-25T12:24:39;99397.47;;;16.19;48.08
75923;BME280;64602;47.542;19.090;2023-04-25T12:29:50;99398.53;;;16.40;47.92
75923;BME280;64602;47.542;19.090;2023-04-25T12:34:53;99386.56;;;17.07;46.84
75923;BME280;64602;47.542;19.090;2023-04-25T12:39:55;99391.03;;;18.25;44.51
75923;BME280;64602;47.542;19.090;2023-04-25T12:44:57;99378.09;;;19.03;43.03
75923;BME280;64602;47.542;19.090;2023-04-25T12:49:59;99383.31;;;18.95;42.13
75923;BME280;64602;47.542;19.090;2023-04-25T12:55:02;99360.41;;;18.44;41.86
75923;BME280;64602;47.542;19.090;2023-04-25T13:00:04;99366.44;;;19.27;39.65
75923;BME280;64602;47.542;19.090;2023-04-25T13:05:09;99368.00;;;19.78;39.48
75923;BME280;64602;47.542;19.090;2023-04-25T13:10:12;99368.87;;;20.74;37.83
75923;BME280;64602;47.542;19.090;2023-04-25T13:15:14;99360.66;;;21.26;36.30
75923;BME280;64602;47.542;19.090;2023-04-25T13:20:17;99366.72;;;21.72;35.37
75923;BME280;64602;47.542;19.090;2023-04-25T13:25:20;99366.72;;;21.32;35.25
75923;BME280;64602;47.542;19.090;2023-04-25T13:30:23;99357.03;;;20.85;34.87
75923;BME280;64602;47.542;19.090;2023-04-25T13:35:25;99354.34;;;19.82;34.96
75923;BME280;64602;47.542;19.090;2023-04-25T13:40:28;99346.41;;;20.50;34.93
75923;BME280;64602;47.542;19.090;2023-04-25T13:45:30;99341.09;;;20.09;33.25
75923;BME280;64602;47.542;19.090;2023-04-25T13:50:34;99333.47;;;20.51;34.07
75923;BME280;64602;47.542;19.090;2023-04-25T13:55:37;99342.53;;;20.88;32.60
75923;BME280;64602;47.542;19.090;2023-04-25T14:00:39;99348.13;;;21.85;31.19
75923;BME280;64602;47.542;19.090;2023-04-25T14:05:42;99343.09;;;22.19;30.47
75923;BME280;64602;47.542;19.090;2023-04-25T14:10:44;99343.97;;;22.07;30.94
75923;BME280;64602;47.542;19.090;2023-04-25T14:15:46;99342.25;;;22.31;30.99
75923;BME280;64602;47.542;19.090;2023-04-25T14:20:48;99333.34;;;21.77;30.65
75923;BME280;64602;47.542;19.090;2023-04-25T14:25:50;99333.97;;;21.18;31.47
75923;BME280;64602;47.542;19.090;2023-04-25T14:30:53;99335.66;;;21.35;30.92
75923;BME280;64602;47.542;19.090;2023-04-25T14:35:55;99343.38;;;21.42;30.87
75923;BME280;64602;47.542;19.090;2023-04-25T14:40:57;99335.56;;;21.31;30.90
75923;BME280;64602;47.542;19.090;2023-04-25T14:45:59;99329.19;;;21.43;31.31
75923;BME280;64602;47.542;19.090;2023-04-25T14:51:03;99321.13;;;21.38;31.10
75923;BME280;64602;47.542;19.090;2023-04-25T14:56:06;99331.84;;;20.87;31.72
75923;BME280;64602;47.542;19.090;2023-04-25T15:01:09;99333.84;;;20.04;32.64
75923;BME280;64602;47.542;19.090;2023-04-25T15:06:11;99328.06;;;19.30;33.77
75923;BME280;64602;47.542;19.090;2023-04-25T15:11:13;99331.13;;;18.57;34.48
75923;BME280;64602;47.542;19.090;2023-04-25T15:16:15;99341.38;;;17.75;35.56
75923;BME280;64602;47.542;19.090;2023-04-25T15:21:18;99343.50;;;17.25;36.83
75923;BME280;64602;47.542;19.090;2023-04-25T15:26:20;99321.56;;;16.99;37.60
75923;BME280;64602;47.542;19.090;2023-04-25T15:31:23;99328.16;;;16.90;37.78
75923;BME280;64602;47.542;19.090;2023-04-25T15:36:25;99332.53;;;17.08;37.01
75923;BME280;64602;47.542;19.090;2023-04-25T15:41:28;99348.03;;;17.30;36.79
75923;BME280;64602;47.542;19.090;2023-04-25T15:46:30;99343.03;;;17.23;37.14
75923;BME280;64602;47.542;19.090;2023-04-25T15:51:33;99323.25;;;16.69;38.16
75923;BME280;64602;47.542;19.090;2023-04-25T15:56:36;99342.47;;;16.78;38.27
75923;BME280;64602;47.542;19.090;2023-04-25T16:01:38;99337.34;;;16.36;40.41
75923;BME280;64602;47.542;19.090;2023-04-25T16:06:41;99348.25;;;15.96;43.62
75923;BME280;64602;47.542;19.090;2023-04-25T16:11:43;99351.84;;;15.38;46.63
75923;BME280;64602;47.542;19.090;2023-04-25T16:16:45;99352.63;;;15.02;48.24
75923;BME280;64602;47.542;19.090;2023-04-25T16:21:47;99359.16;;;14.65;49.90
75923;BME280;64602;47.542;19.090;2023-04-25T16:26:49;99367.00;;;14.39;51.00
75923;BME280;64602;47.542;19.090;2023-04-25T16:31:51;99360.97;;;14.28;51.39
75923;BME280;64602;47.542;19.090;2023-04-25T16:36:54;99364.97;;;14.17;52.06
75923;BME280;64602;47.542;19.090;2023-04-25T16:41:57;99350.78;;;13.87;53.18
75923;BME280;64602;47.542;19.090;2023-04-25T16:46:59;99348.31;;;13.72;53.76
75923;BME280;64602;47.542;19.090;2023-04-25T16:52:02;99363.50;;;13.59;54.75
75923;BME280;64602;47.542;19.090;2023-04-25T16:57:04;99368.84;;;13.50;54.97
75923;BME280;64602;47.542;19.090;2023-04-25T17:02:10;99349.53;;;13.46;55.27
75923;BME280;64602;47.542;19.090;2023-04-25T17:07:13;99356.69;;;13.42;55.69
75923;BME280;64602;47.542;19.090;2023-04-25T17:12:17;99367.81;;;13.27;56.52
75923;BME280;64602;47.542;19.090;2023-04-25T17:17:20;99366.25;;;13.21;56.91
75923;BME280;64602;47.542;19.090;2023-04-25T17:22:23;99375.72;;;13.04;57.38
75923;BME280;64602;47.542;19.090;2023-04-25T17:27:25;99386.38;;;13.01;57.78
75923;BME280;64602;47.542;19.090;2023-04-25T17:32:27;99386.59;;;12.86;57.90
75923;BME280;64602;47.542;19.090;2023-04-25T17:37:29;99406.50;;;12.81;57.98
75923;BME280;64602;47.542;19.090;2023-04-25T17:42:32;99407.16;;;12.73;58.12
75923;BME280;64602;47.542;19.090;2023-04-25T17:47:34;99413.19;;;12.70;57.92
75923;BME280;64602;47.542;19.090;2023-04-25T17:52:37;99421.19;;;12.61;58.27
75923;BME280;64602;47.542;19.090;2023-04-25T17:57:39;99410.47;;;12.46;58.51
75923;BME280;64602;47.542;19.090;2023-04-25T18:02:41;99404.78;;;12.42;58.86
75923;BME280;64602;47.542;19.090;2023-04-25T18:07:46;99423.81;;;12.42;58.00
75923;BME280;64602;47.542;19.090;2023-04-25T18:12:48;99433.22;;;12.26;57.77
75923;BME280;64602;47.542;19.090;2023-04-25T18:17:51;99446.81;;;12.31;58.20
75923;BME280;64602;47.542;19.090;2023-04-25T18:22:53;99435.28;;;12.10;59.31
75923;BME280;64602;47.542;19.090;2023-04-25T18:27:55;99451.41;;;12.01;60.66
75923;BME280;64602;47.542;19.090;2023-04-25T18:32:59;99454.72;;;11.93;61.56
75923;BME280;64602;47.542;19.090;2023-04-25T18:38:01;99454.53;;;11.79;62.47
75923;BME280;64602;47.542;19.090;2023-04-25T18:43:04;99476.84;;;11.76;62.92
75923;BME280;64602;47.542;19.090;2023-04-25T18:48:07;99481.00;;;11.63;63.10
75923;BME280;64602;47.542;19.090;2023-04-25T18:53:09;99496.00;;;11.50;63.21
75923;BME280;64602;47.542;19.090;2023-04-25T18:58:12;99499.09;;;11.39;63.30
75923;BME280;64602;47.542;19.090;2023-04-25T19:03:14;99492.09;;;11.22;63.63
75923;BME280;64602;47.542;19.090;2023-04-25T19:08:16;99507.59;;;11.22;64.03
75923;BME280;64602;47.542;19.090;2023-04-25T19:13:19;99517.62;;;11.16;64.02
75923;BME280;64602;47.542;19.090;2023-04-25T19:18:22;99502.50;;;11.00;64.40
75923;BME280;64602;47.542;19.090;2023-04-25T19:23:24;99517.44;;;10.97;64.63
75923;BME280;64602;47.542;19.090;2023-04-25T19:28:27;99486.00;;;10.81;65.12
75923;BME280;64602;47.542;19.090;2023-04-25T19:33:31;99496.03;;;10.75;65.42
75923;BME280;64602;47.542;19.090;2023-04-25T19:38:33;99510.72;;;10.69;65.71
75923;BME280;64602;47.542;19.090;2023-04-25T19:43:35;99516.41;;;10.62;65.96
75923;BME280;64602;47.542;19.090;2023-04-25T19:48:38;99507.19;;;10.48;66.35
75923;BME280;64602;47.542;19.090;2023-04-25T19:53:40;99493.66;;;10.43;66.51
75923;BME280;64602;47.542;19.090;2023-04-25T19:58:42;99511.56;;;10.44;67.04
75923;BME280;64602;47.542;19.090;2023-04-25T20:03:45;99515.34;;;10.38;67.46
75923;BME280;64602;47.542;19.090;2023-04-25T20:08:52;99503.38;;;10.23;67.53
